x

Tillamook, Or - 85 Nm Wnw Of Tillamook, Or (46089) Wave Buoy

2:50am - Wed 23rd Apr 2014 All times are PDT. -7 hours from GMT.

  • Sig Wave height 10.8ft
  • Swell Direction
  • Peak Period 13s
  • Average Period 8s
  • Wind
    11mph, 18mph gusts
  • Sea Temp 51°f
  • Air Temp 48°f
  • Sea Pressure 1011.9mb
  • Tillamook, Or - 85 Nm Wnw Of Tillamook, Or
  • Tillamook, Or - 85 Nm Wnw Of Tillamook, Or

More Historic Weather Station data

Upgrade to MSW Pro to gain access to the past 30 days of data for over 8000 Wavebouys and Weather Stations around the globe.

Join Pro

Comparision Forecast

View Surf forecast
   
Wed 04/23 2:50am 11ft 13s 8s 11 18 mph 1011.9mb 51f 48f
1:50am 12ft 13s 8s 11 16 mph 1012.2mb 51f 50f
12:50am 12ft 13s 8s 13 20 mph 1012mb 51f 49f
Tue 04/22 11:50pm 11.5ft 14s 8s 16 27 mph 1011.7mb 51f 48f
10:50pm 12ft 13s 8s 16 22 mph 1011.6mb 51f 49f
9:50pm 12ft 13s 8s 13 18 mph 1011.6mb 51f 49f
8:50pm 13ft 14s 9s 11 16 mph 1011.2mb 51f 49f
7:50pm 11ft 11s 8s 16 20 mph 1011.1mb 51f 49f
6:50pm 12.5ft 14s 9s 16 22 mph 1011mb 51f 49f
5:50pm 11ft 13s 8s 13 18 mph 1011.5mb 51f 48f
4:50pm 11.5ft 12s 8s 13 22 mph 1012mb 51f 47f
3:50pm 11ft 13s 7s 16 22 mph 1011.8mb 51f 50f
2:50pm 10.5ft 12s 7s 16 25 mph 1011.9mb 51f 49f
1:50pm 8.5ft 12s 6s 18 25 mph 1012mb 51f 48f
12:50pm 9ft 11s 7s 18 25 mph 1011.9mb 51f 51f
11:50am 9ft 12s 8s 16 20 mph 1012.4mb 51f 50f
10:50am 8.5ft 12s 8s 13 18 mph 1012.6mb 51f 50f
9:50am 9.5ft 12s 9s 11 18 mph 1012.8mb 51f 48f
8:50am 9ft 12s 8s 9 13 mph 1013.1mb 51f 48f
7:50am 10ft 12s 9s 11 16 mph 1013.2mb 51f 49f
6:50am 9.5ft 13s 9s 11 13 mph 1013.3mb 51f 48f
5:50am 9ft 13s 9s 9 11 mph 1013.4mb 51f 49f
4:50am 8ft 12s 8s 11 13 mph 1013.6mb 51f 49f
3:50am 9ft 13s 9s 9 13 mph 1013.8mb 51f 49f
2:50am 9.5ft 13s 9s 9 13 mph 1014.1mb 51f 49f
1:50am 10ft 13s 9s 11 13 mph 1014.3mb 51f 49f
12:50am 11ft 13s 9s 9 16 mph 1014.3mb 51f 49f
Mon 04/21 11:50pm 10.5ft 14s 9s 9 11 mph 1014.4mb 51f 49f
10:50pm 11ft 13s 9s 9 11 mph 1014.6mb 51f 49f
9:50pm 11ft 13s 9s 9 16 mph 1014.8mb 51f 48f
8:50pm 11.5ft 12s 9s 7 9 mph 1014.6mb 51f 49f
7:50pm 11ft 13s 9s 7 9 mph 1014.5mb 51f 49f
6:50pm 13ft 13s 10s 9 13 mph 1015.2mb 51f 49f
5:50pm 13ft 13s 10s 9 13 mph 1014.8mb 51f 49f
4:50pm 11ft 14s 10s 9 11 mph 1015.3mb 51f 49f
3:50pm 10ft 14s 9s 7 11 mph 1016.1mb 51f 49f
2:50pm 11ft 14s 10s 7 11 mph 1015.7mb 51f 48f
1:50pm 11ft 14s 9s 7 9 mph 1016.2mb 51f 48f
12:50pm 12ft 14s 9s 7 9 mph 1016.5mb 51f 48f
11:50am 14.5ft 13s 11s 7 9 mph 1017.1mb 51f 48f
10:50am 15ft 14s 11s 7 9 mph 1017.2mb 51f 48f
9:50am 13ft 14s 10s 7 9 mph 1017.3mb 51f 48f
8:50am 14.5ft 14s 10s 7 9 mph 1017.4mb 51f 48f
7:50am 13ft 14s 10s 4 7 mph 1017.6mb 51f 48f
6:50am 13.5ft 14s 10s 7 9 mph 1017.6mb 51f 47f
5:50am 14ft 14s 10s 7 9 mph 1018.1mb 51f 48f
4:50am 13ft 14s 10s 4 7 mph 1018.3mb 51f 48f
3:50am 13.5ft 14s 10s 4 7 mph 1018.9mb 51f 47f
2:50am 13.5ft 14s 10s 4 9 mph 1019.3mb 51f 47f
1:50am 12ft 11s 10s 4 9 mph 1019.7mb 51f 48f
12:50am 13ft 15s 10s 2 4 mph 1020mb 51f 50f
Sun 04/20 11:50pm 15ft 14s 10s 2 4 mph 1020.1mb 51f 50f
10:50pm 14ft 14s 10s 2 4 mph 1020.2mb 51f 49f
9:50pm 15.5ft 15s 10s 2 4 mph 1020.7mb 51f 49f
8:50pm 15ft 15s 10s 4 9 mph 1020.5mb 51f 49f
7:50pm 15ft 15s 9s 9 16 mph 1020.2mb 51f 49f
6:50pm 14.5ft 15s 9s 13 20 mph 1020.1mb 51f 52f
5:50pm 15ft 15s 9s 18 22 mph 1020.3mb 51f 52f
4:50pm 15.5ft 15s 9s 16 22 mph 1020.8mb 51f 52f
3:50pm 15.5ft 15s 10s 16 22 mph 1021.2mb 51f 52f
2:50pm 16.5ft 16s 10s 16 25 mph 1021.6mb 51f 52f
1:50pm 18ft 15s 10s 16 22 mph 1022.1mb 51f 52f
12:50pm 17.5ft 16s 10s 16 22 mph 1022.3mb 51f 52f
11:50am 17ft 16s 10s 16 22 mph 1022.5mb 51f 52f
10:50am 20ft 16s 11s 13 20 mph 1022.5mb 51f 51f
9:50am 19.5ft 15s 11s 13 20 mph 1022.6mb 51f 51f
8:50am 21.5ft 16s 12s 13 18 mph 1022.7mb 51f 51f
7:50am 20.5ft 16s 11s 11 18 mph 1022.6mb 51f 51f
6:50am 22ft 16s 12s 11 18 mph 1022.6mb 51f 51f
5:50am 20.5ft 15s 11s 11 18 mph 1022.6mb 51f 51f
4:50am 19.5ft 16s 11s 11 16 mph 1022.9mb 51f 51f
3:50am 21ft 16s 11s 9 13 mph 1023mb 51f 51f
2:50am 21.5ft 16s 12s 9 13 mph 1023.1mb 51f 51f
1:50am 21.5ft 17s 11s 11 13 mph 1023mb 51f 51f
12:50am 21.5ft 16s 11s 11 13 mph 1022.9mb 51f 51f
Sat 04/19 11:50pm 22.5ft 16s 11s 13 18 mph 1022.7mb 51f 51f
10:50pm 23ft 16s 12s 11 18 mph 1022.4mb 51f 51f
9:50pm 20.5ft 16s 11s 11 16 mph 1021.8mb 51f 51f
8:50pm 24ft 16s 12s 11 18 mph 1020.6mb 51f 51f
7:50pm 16ft 15s 10s 11 16 mph 1019.8mb 51f 51f
6:50pm 11.5ft 12s 8s 11 18 mph 1019.2mb 51f 51f
5:50pm 9.5ft 8s 7s 16 20 mph 1018.1mb 51f 51f
4:50pm 9ft 9s 7s 16 20 mph 1017mb 51f 51f
3:50pm 9.5ft 8s 7s 16 25 mph 1015.9mb 51f 52f
2:50pm 9.5ft 13s 7s 16 20 mph 1014.8mb 51f 51f
1:50pm 8ft 9s 6s 16 20 mph 1013.4mb 51f 49f
12:50pm 8.5ft 8s 6s 16 22 mph 1011.9mb 51f 51f
11:50am 8.5ft 9s 6s 16 25 mph 1010.6mb 51f 51f
10:50am 9.5ft 9s 7s 13 20 mph 1009.1mb 50f 52f